createdAt,value
2022-11-19T00:00:13.360Z,90.94
2022-11-19T00:01:46.093Z,91.23
2022-11-19T00:03:19.512Z,91.35
2022-11-19T00:04:53.416Z,91.53
2022-11-19T00:06:28.295Z,91.47
2022-11-19T00:08:00.161Z,91.08
2022-11-19T00:09:32.037Z,91.22
2022-11-19T00:11:09.296Z,90.93
2022-11-19T00:14:14.144Z,91.06
2022-11-19T00:15:46.114Z,90.99
2022-11-19T00:17:17.966Z,91.01
2022-11-19T00:18:49.847Z,91.10
2022-11-19T00:20:21.802Z,91.22
2022-11-19T00:21:53.651Z,91.43
2022-11-19T00:23:25.460Z,91.52
2022-11-19T00:24:57.321Z,91.39
2022-11-19T00:26:29.300Z,91.27
2022-11-19T00:28:01.092Z,91.51
2022-11-19T00:29:32.975Z,91.65
2022-11-19T00:31:09.703Z,91.81
2022-11-19T00:32:41.699Z,91.96
2022-11-19T00:34:13.729Z,91.68
2022-11-19T00:35:45.591Z,91.56
2022-11-19T00:37:17.459Z,91.73
2022-11-19T00:38:49.361Z,91.91
2022-11-19T00:40:21.207Z,91.61
2022-11-19T00:41:53.112Z,91.50
2022-11-19T00:43:43.498Z,91.62
2022-11-19T00:45:15.455Z,91.72
2022-11-19T00:46:47.338Z,91.98
2022-11-19T00:48:19.280Z,92.55
2022-11-19T00:49:51.179Z,93.20
2022-11-19T00:51:23.450Z,93.16
2022-11-19T00:52:55.306Z,93.36
2022-11-19T00:54:27.181Z,93.27
2022-11-19T00:56:02.730Z,92.96
2022-11-19T00:57:34.694Z,92.63
2022-11-19T00:59:06.567Z,92.62
2022-11-19T01:00:39.325Z,92.91
2022-11-19T01:02:11.711Z,93.33
2022-11-19T01:03:45.701Z,93.20
2022-11-19T01:05:17.594Z,93.28
2022-11-19T01:06:49.464Z,93.14
2022-11-19T01:08:21.336Z,93.37
2022-11-19T01:09:53.280Z,93.20
2022-11-19T01:11:28.374Z,93.26
2022-11-19T01:13:18.661Z,93.27
2022-11-19T01:14:50.581Z,92.95
2022-11-19T01:16:26.694Z,92.97
2022-11-19T01:19:30.314Z,92.82
2022-11-19T01:21:02.288Z,92.67
2022-11-19T01:22:34.178Z,92.65
2022-11-19T01:24:06.202Z,92.75
2022-11-19T01:25:38.136Z,92.76
2022-11-19T01:27:09.979Z,92.75
2022-11-19T01:28:42.305Z,92.42
2022-11-19T01:30:14.323Z,92.46
2022-11-19T01:31:46.143Z,92.25
2022-11-19T01:33:18.221Z,92.24
2022-11-19T01:34:50.707Z,92.08
2022-11-19T01:36:23.790Z,91.85
2022-11-19T01:37:55.758Z,91.91
2022-11-19T01:39:27.700Z,92.02
2022-11-19T01:40:59.618Z,92.16
2022-11-19T01:42:51.279Z,91.98
2022-11-19T01:44:41.927Z,91.66
2022-11-19T01:46:14.967Z,91.67
2022-11-19T01:47:49.155Z,91.77
2022-11-19T01:49:21.336Z,91.69
2022-11-19T01:50:54.763Z,91.40
2022-11-19T01:53:59.292Z,91.16
2022-11-19T01:55:31.407Z,91.14
2022-11-19T01:57:04.358Z,91.29
2022-11-19T01:58:39.756Z,91.15
2022-11-19T02:00:11.901Z,91.13
2022-11-19T02:01:44.697Z,91.19
2022-11-19T02:03:17.203Z,91.08
2022-11-19T02:04:51.974Z,91.09
2022-11-19T02:06:23.805Z,90.84
2022-11-19T02:07:57.164Z,90.76
2022-11-19T02:09:28.976Z,90.67
2022-11-19T02:11:21.087Z,90.82
2022-11-19T02:13:19.083Z,91.13
2022-11-19T02:14:54.895Z,91.31
2022-11-19T02:16:29.114Z,91.12
2022-11-19T02:18:12.986Z,91.21
2022-11-19T02:20:04.035Z,91.18
2022-11-19T02:23:29.821Z,91.18
2022-11-19T02:25:20.243Z,91.33
2022-11-19T02:26:52.267Z,91.14
2022-11-19T02:28:42.775Z,91.31
2022-11-19T02:30:16.899Z,91.15
2022-11-19T03:26:37.612Z,91.41
2022-11-19T03:28:10.816Z,91.48
2022-11-19T03:29:43.783Z,91.59
2022-11-19T03:31:15.586Z,91.68
2022-11-19T03:32:51.951Z,91.52
2022-11-19T03:34:23.846Z,91.67
2022-11-19T03:35:58.444Z,91.73
2022-11-19T03:37:30.938Z,91.80
2022-11-19T03:39:04.688Z,91.70
2022-11-19T03:40:36.571Z,91.67
2022-11-19T03:42:09.774Z,91.59
2022-11-19T03:43:42.008Z,91.86
2022-11-19T03:45:15.122Z,91.78
2022-11-19T03:46:47.242Z,91.58
2022-11-19T03:48:19.154Z,90.88
2022-11-19T03:49:52.631Z,90.74
2022-11-19T03:51:36.361Z,90.79
2022-11-19T03:53:08.179Z,90.93
2022-11-19T03:54:41.397Z,90.85
2022-11-19T03:56:14.049Z,90.48
2022-11-19T03:57:45.847Z,90.34
2022-11-19T03:59:18.111Z,90.55
2022-11-19T04:00:50.269Z,90.84
2022-11-19T04:02:22.367Z,90.68
2022-11-19T04:04:12.573Z,90.84
2022-11-19T04:05:44.414Z,90.89
2022-11-19T04:07:17.934Z,91.13
2022-11-19T04:08:49.876Z,91.38
2022-11-19T04:10:21.805Z,91.25
2022-11-19T04:13:24.134Z,91.23
2022-11-19T04:14:56.046Z,91.18
2022-11-19T04:16:28.055Z,90.84
2022-11-19T04:18:02.163Z,90.96
2022-11-19T04:19:34.117Z,91.12
2022-11-19T04:21:06.052Z,91.26
2022-11-19T04:22:40.745Z,91.29
2022-11-19T04:24:13.473Z,91.06
2022-11-19T04:25:48.394Z,90.93
2022-11-19T04:27:20.246Z,90.68
2022-11-19T04:28:52.133Z,90.89
2022-11-19T04:30:24.193Z,90.72
2022-11-19T04:31:56.305Z,90.55
2022-11-19T04:33:28.180Z,90.43
2022-11-19T04:34:59.980Z,90.70
2022-11-19T04:36:31.880Z,90.75
2022-11-19T04:38:03.936Z,91.22
2022-11-19T04:39:35.748Z,90.96
2022-11-19T04:41:07.686Z,91.17
2022-11-19T04:42:39.569Z,91.41
2022-11-19T04:44:11.429Z,91.65
2022-11-19T04:45:43.234Z,91.80
2022-11-19T04:47:15.211Z,91.74
2022-11-19T04:48:47.164Z,91.96
2022-11-19T04:50:19.231Z,91.96
2022-11-19T04:51:51.083Z,92.04
2022-11-19T04:53:23.001Z,91.88
2022-11-19T04:56:26.676Z,92.10
2022-11-19T04:57:58.643Z,92.04
2022-11-19T04:59:30.473Z,92.00
2022-11-19T05:01:02.357Z,92.06
2022-11-19T05:02:34.214Z,91.90
2022-11-19T05:04:06.236Z,91.85
2022-11-19T05:05:38.205Z,91.67
2022-11-19T05:07:10.359Z,91.57
2022-11-19T05:08:42.518Z,91.88
2022-11-19T05:10:14.414Z,91.52
2022-11-19T05:11:46.294Z,91.58
2022-11-19T05:13:18.277Z,91.63
2022-11-19T05:14:51.531Z,91.70
2022-11-19T05:16:23.433Z,91.73
2022-11-19T05:17:55.363Z,91.93
2022-11-19T05:19:27.280Z,92.09
2022-11-19T05:20:59.158Z,92.04
2022-11-19T05:22:31.243Z,91.95
2022-11-19T05:24:03.172Z,91.80
2022-11-19T05:25:35.099Z,91.93
2022-11-19T05:27:06.960Z,91.94
2022-11-19T05:28:39.999Z,92.01
2022-11-19T05:30:15.141Z,91.69
2022-11-19T05:31:47.051Z,91.89
2022-11-19T05:33:20.074Z,91.95
2022-11-19T05:34:52.106Z,92.07
2022-11-19T05:36:24.008Z,92.14
2022-11-19T05:37:56.031Z,92.24
2022-11-19T05:39:28.489Z,92.38
2022-11-19T05:41:00.668Z,92.44
2022-11-19T05:42:32.514Z,92.59
2022-11-19T05:44:04.536Z,92.55
2022-11-19T05:45:36.622Z,92.73
2022-11-19T05:47:08.515Z,92.72
2022-11-19T05:48:40.636Z,92.67
2022-11-19T05:50:14.617Z,92.83
2022-11-19T05:51:46.978Z,92.58
2022-11-19T05:53:18.852Z,92.73
2022-11-19T05:54:50.783Z,92.68
2022-11-19T05:56:22.705Z,92.61
2022-11-19T05:57:54.605Z,92.80
2022-11-19T05:59:26.606Z,92.83
2022-11-19T06:00:59.272Z,92.84
2022-11-19T06:02:31.465Z,92.75
2022-11-19T06:04:03.532Z,92.99
2022-11-19T06:05:40.093Z,92.84
2022-11-19T06:07:12.624Z,92.95
2022-11-19T06:08:44.553Z,92.97
2022-11-19T06:10:16.822Z,92.87
2022-11-19T06:11:48.866Z,92.79
2022-11-19T06:13:20.786Z,92.91
2022-11-19T06:14:52.713Z,92.84
2022-11-19T06:16:24.631Z,92.80
2022-11-19T06:17:57.137Z,92.97
2022-11-19T06:19:29.126Z,93.13
2022-11-19T06:21:01.192Z,92.77
2022-11-19T06:22:33.117Z,92.89
2022-11-19T06:24:05.705Z,92.60
2022-11-19T06:25:37.613Z,92.42
2022-11-19T06:27:09.467Z,92.46
2022-11-19T06:28:41.307Z,92.45
2022-11-19T06:30:13.984Z,92.54
2022-11-19T06:31:46.226Z,92.61
2022-11-19T06:33:18.079Z,92.44
2022-11-19T06:34:50.086Z,92.45
2022-11-19T06:36:22.232Z,92.52
2022-11-19T06:37:54.289Z,92.62
2022-11-19T06:39:26.331Z,92.51
2022-11-19T06:40:58.232Z,92.66
2022-11-19T06:42:39.219Z,92.63
2022-11-19T06:44:11.103Z,92.38
2022-11-19T06:45:43.195Z,92.24
2022-11-19T06:47:15.070Z,92.32
2022-11-19T06:48:46.986Z,92.13
2022-11-19T06:50:18.986Z,92.04
2022-11-19T06:51:50.954Z,91.93
2022-11-19T06:53:23.121Z,91.95
2022-11-19T06:54:54.965Z,91.65
2022-11-19T06:56:26.978Z,91.62
2022-11-19T06:58:02.058Z,91.54
2022-11-19T06:59:35.368Z,91.54
2022-11-19T07:01:07.460Z,91.61
2022-11-19T07:02:39.486Z,91.25
2022-11-19T07:04:11.477Z,90.88
2022-11-19T07:05:43.485Z,90.35
2022-11-19T07:07:15.510Z,89.63
2022-11-19T07:08:47.557Z,89.19
2022-11-19T07:10:19.769Z,88.85
2022-11-19T07:11:51.767Z,88.58
2022-11-19T07:13:23.765Z,87.51
2022-11-19T07:14:59.721Z,87.05
2022-11-19T07:16:35.645Z,85.97
2022-11-19T07:18:07.581Z,85.76
2022-11-19T07:19:39.550Z,85.90
2022-11-19T07:21:11.457Z,84.67
2022-11-19T07:24:18.101Z,82.55
2022-11-19T07:25:50.169Z,81.26
2022-11-19T07:27:22.122Z,80.48
2022-11-19T07:28:54.332Z,80.09
2022-11-19T07:30:26.388Z,80.83
2022-11-19T07:31:58.626Z,80.04
2022-11-19T07:33:30.625Z,80.09
2022-11-19T07:35:02.871Z,79.65
2022-11-19T07:36:35.188Z,79.60
2022-11-19T07:38:07.552Z,79.21
2022-11-19T07:39:39.458Z,78.70
2022-11-19T07:41:30.493Z,78.77
2022-11-19T07:43:02.843Z,76.99
2022-11-19T07:44:34.929Z,76.59
2022-11-19T07:46:07.452Z,76.33
2022-11-19T07:47:39.939Z,76.46
2022-11-19T07:49:11.960Z,74.74
2022-11-19T07:50:55.148Z,75.16
2022-11-19T07:52:31.238Z,74.96
2022-11-19T07:54:03.481Z,75.35
2022-11-19T07:55:35.505Z,74.75
2022-11-19T07:57:07.664Z,74.77
2022-11-19T08:00:15.137Z,73.32
2022-11-19T08:01:47.110Z,73.90
2022-11-19T08:03:19.885Z,73.88
2022-11-19T08:04:52.062Z,74.29
2022-11-19T08:06:26.645Z,73.78
2022-11-19T08:07:59.127Z,73.62
2022-11-19T08:09:31.322Z,74.10
2022-11-19T08:11:04.420Z,72.92
2022-11-19T08:12:36.858Z,70.51
2022-11-19T08:14:09.246Z,69.49
2022-11-19T08:15:41.454Z,70.15
2022-11-19T08:17:31.997Z,69.48
2022-11-19T08:19:08.273Z,69.01
2022-11-19T08:20:40.931Z,68.99
2022-11-19T08:22:12.972Z,67.64
2022-11-19T08:23:44.902Z,66.46
2022-11-19T08:25:16.729Z,67.89
2022-11-19T08:28:35.380Z,66.05
2022-11-19T08:30:08.855Z,66.30
2022-11-19T08:31:41.837Z,65.29
2022-11-19T08:33:13.974Z,66.48
2022-11-19T08:34:45.979Z,66.87
2022-11-19T08:36:18.185Z,64.01
2022-11-19T08:37:50.676Z,65.71
2022-11-19T08:39:22.712Z,67.48
2022-11-19T08:41:17.285Z,68.07
2022-11-19T08:43:02.024Z,68.49
2022-11-19T08:44:34.083Z,67.94
2022-11-19T08:46:06.032Z,67.68
2022-11-19T08:47:38.155Z,68.47
2022-11-19T08:49:10.528Z,68.24
2022-11-19T08:50:42.692Z,69.47
2022-11-19T08:52:14.734Z,69.11
2022-11-19T08:53:47.281Z,69.60
2022-11-19T08:55:19.353Z,69.33
2022-11-19T08:58:24.773Z,67.42
2022-11-19T08:59:59.120Z,66.92
2022-11-19T09:01:35.147Z,67.79
2022-11-19T09:03:07.309Z,68.68
2022-11-19T09:04:39.357Z,69.78
2022-11-19T09:06:11.506Z,69.71
2022-11-19T09:07:43.685Z,70.54
2022-11-19T09:09:16.045Z,69.96
2022-11-19T09:10:49.073Z,66.20
2022-11-19T09:12:21.203Z,68.94
2022-11-19T09:13:53.170Z,69.21
2022-11-19T09:15:25.231Z,68.50
2022-11-19T09:16:57.251Z,68.59
2022-11-19T09:18:29.576Z,68.82
2022-11-19T09:20:01.704Z,69.02
2022-11-19T09:21:33.850Z,66.98
2022-11-19T09:23:05.884Z,68.09
2022-11-19T09:24:37.908Z,66.99
2022-11-19T09:26:12.470Z,66.53
2022-11-19T09:27:44.708Z,65.95
2022-11-19T09:29:16.876Z,66.55
2022-11-19T09:31:04.468Z,66.86
2022-11-19T09:32:39.700Z,66.15
2022-11-19T09:34:11.910Z,66.25
2022-11-19T09:35:44.029Z,67.10
2022-11-19T09:37:16.230Z,65.74
2022-11-19T09:38:48.770Z,65.92
2022-11-19T09:40:21.756Z,65.41
2022-11-19T09:42:12.538Z,65.83
2022-11-19T09:43:47.776Z,64.36
2022-11-19T09:45:20.086Z,64.77
2022-11-19T09:47:18.271Z,65.31
2022-11-19T09:48:50.910Z,64.61
2022-11-19T09:50:23.695Z,65.13
2022-11-19T09:51:57.700Z,64.71
2022-11-19T09:53:32.481Z,64.82
2022-11-19T09:55:04.721Z,63.66
2022-11-19T09:56:38.074Z,64.05
2022-11-19T09:58:15.258Z,63.07
2022-11-19T09:59:47.307Z,63.64
2022-11-19T10:01:19.694Z,63.52
2022-11-19T10:02:52.292Z,63.24
2022-11-19T10:04:25.826Z,63.59
2022-11-19T10:06:18.407Z,63.34
2022-11-19T10:07:53.632Z,62.58
2022-11-19T10:09:54.854Z,62.55
2022-11-19T10:11:31.900Z,63.18
2022-11-19T10:13:12.624Z,63.21
2022-11-19T10:14:47.817Z,63.14
2022-11-19T10:16:41.739Z,63.11
2022-11-19T10:18:29.143Z,63.16
2022-11-19T10:20:09.371Z,62.77
2022-11-19T10:22:04.713Z,62.48
2022-11-19T10:23:55.286Z,63.90
2022-11-19T10:25:33.352Z,62.93
2022-11-19T10:27:10.952Z,61.81
2022-11-19T10:29:03.608Z,60.41
2022-11-19T10:32:19.681Z,62.14
2022-11-19T10:34:01.442Z,60.73
2022-11-19T10:35:34.864Z,59.93
2022-11-19T10:37:09.310Z,61.03
2022-11-19T10:38:58.038Z,61.89
2022-11-19T10:40:40.501Z,61.64
2022-11-19T10:42:18.213Z,62.28
2022-11-19T10:43:56.458Z,59.41
2022-11-19T10:45:30.154Z,59.68
2022-11-19T10:47:02.493Z,60.15
2022-11-19T10:48:38.803Z,61.96
2022-11-19T10:50:18.173Z,61.17
2022-11-19T10:51:50.616Z,62.81
2022-11-19T10:53:25.559Z,62.08
2022-11-19T10:54:59.794Z,61.65
2022-11-19T10:56:36.677Z,62.82
2022-11-19T10:58:11.411Z,62.61
2022-11-19T10:59:43.615Z,63.97
2022-11-19T11:01:24.868Z,62.29
2022-11-19T11:03:03.475Z,61.81
2022-11-19T11:04:38.612Z,61.17
2022-11-19T11:06:11.435Z,61.43
2022-11-19T11:07:50.319Z,61.98
2022-11-19T11:09:39.246Z,59.40
2022-11-19T11:11:11.297Z,60.23
2022-11-19T11:13:01.766Z,60.21
2022-11-19T11:14:52.120Z,57.79
2022-11-19T11:16:31.587Z,58.90
2022-11-19T11:18:06.909Z,58.71
2022-11-19T11:19:39.083Z,60.13
2022-11-19T11:21:29.708Z,59.20
2022-11-19T11:23:04.731Z,57.77
2022-11-19T11:24:39.942Z,58.41
2022-11-19T11:26:12.663Z,59.57
2022-11-19T11:27:44.722Z,59.29
2022-11-19T11:29:16.642Z,59.94
2022-11-19T11:30:55.974Z,60.57
2022-11-19T11:32:29.271Z,60.74
2022-11-19T11:34:03.031Z,58.95
2022-11-19T11:35:36.473Z,60.50
2022-11-19T11:37:09.092Z,58.65
2022-11-19T11:38:46.888Z,59.50
2022-11-19T11:40:19.497Z,58.86
2022-11-19T11:42:05.407Z,61.16
2022-11-19T11:43:39.316Z,60.08
2022-11-19T11:45:17.210Z,60.66
2022-11-19T11:46:52.682Z,57.87
2022-11-19T11:48:24.717Z,57.70
2022-11-19T11:49:59.780Z,57.45
2022-11-19T11:51:35.756Z,58.52
2022-11-19T11:53:08.765Z,57.52
2022-11-19T11:54:56.014Z,57.65
2022-11-19T11:56:27.965Z,56.47
2022-11-19T11:58:01.310Z,56.38
2022-11-19T11:59:36.488Z,58.05
2022-11-19T12:01:15.984Z,55.36
2022-11-19T12:02:59.876Z,56.24
2022-11-19T12:06:11.908Z,57.15
2022-11-19T12:07:44.165Z,56.04
2022-11-19T12:09:19.384Z,57.20
2022-11-19T12:10:57.360Z,56.50
2022-11-19T12:12:29.282Z,56.61
2022-11-19T12:14:09.497Z,56.93
2022-11-19T12:15:51.882Z,56.23
2022-11-19T12:17:42.066Z,57.99
2022-11-19T12:19:14.191Z,56.21
2022-11-19T12:20:48.812Z,56.72
2022-11-19T12:22:36.100Z,56.79
2022-11-19T12:24:16.065Z,56.94
2022-11-19T12:26:13.042Z,57.85
2022-11-19T12:27:44.977Z,55.54
2022-11-19T12:29:17.216Z,55.24
2022-11-19T12:31:08.102Z,55.55
2022-11-19T12:32:39.991Z,56.75
2022-11-19T12:36:03.682Z,57.69
2022-11-19T12:37:44.912Z,55.77
2022-11-19T12:39:35.576Z,54.73
2022-11-19T12:41:14.443Z,55.85
2022-11-19T12:42:49.764Z,56.42
2022-11-19T12:44:29.268Z,56.05
2022-11-19T12:46:01.291Z,55.69
2022-11-19T12:47:45.243Z,56.15
2022-11-19T12:49:36.035Z,56.14
2022-11-19T12:51:08.223Z,57.27
2022-11-19T12:52:45.986Z,56.77
2022-11-19T12:54:33.382Z,55.86
2022-11-19T12:56:25.496Z,56.14
2022-11-19T12:57:57.460Z,56.59
2022-11-19T13:00:01.989Z,56.12
2022-11-19T13:01:34.988Z,56.87
2022-11-19T13:03:12.010Z,56.67
2022-11-19T13:04:45.261Z,56.78
2022-11-19T13:06:25.677Z,56.59
2022-11-19T13:08:16.442Z,57.59
2022-11-19T13:09:49.314Z,57.10
2022-11-19T13:11:36.719Z,57.71
2022-11-19T13:13:09.217Z,56.82
2022-11-19T13:14:41.908Z,56.45
2022-11-19T13:16:17.469Z,56.00
2022-11-19T13:17:50.887Z,57.61
2022-11-19T13:19:23.307Z,57.25
2022-11-19T13:21:04.950Z,57.22
2022-11-19T13:22:37.764Z,57.80
2022-11-19T13:24:28.702Z,56.91
2022-11-19T13:26:07.805Z,57.21
2022-11-19T13:27:39.957Z,57.55
2022-11-19T13:29:30.615Z,57.22
2022-11-19T13:31:04.452Z,58.15
2022-11-19T13:32:54.811Z,57.86
2022-11-19T13:34:28.504Z,57.47
2022-11-19T13:36:00.683Z,58.46
2022-11-19T13:39:13.901Z,57.65
2022-11-19T13:40:47.483Z,59.20
2022-11-19T13:42:37.985Z,58.65
2022-11-19T13:44:28.982Z,59.03
2022-11-19T13:46:18.238Z,59.78
2022-11-19T13:47:58.127Z,59.45
2022-11-19T13:49:34.104Z,59.35
2022-11-19T13:51:10.367Z,59.50
2022-11-19T13:52:47.377Z,60.16
2022-11-19T13:54:23.990Z,59.85
2022-11-19T13:55:56.382Z,60.15
2022-11-19T13:57:35.477Z,60.55
2022-11-19T13:59:07.461Z,60.40
2022-11-19T14:00:39.320Z,60.53
2022-11-19T14:02:11.339Z,60.76
2022-11-19T14:03:49.469Z,60.66
2022-11-19T14:05:30.713Z,60.46
2022-11-19T14:07:17.824Z,60.92
2022-11-19T14:09:08.591Z,61.05
2022-11-19T14:10:59.407Z,61.23
2022-11-19T14:12:49.896Z,61.86
2022-11-19T14:14:59.542Z,61.05
2022-11-19T14:16:49.814Z,60.88
2022-11-19T14:18:42.411Z,60.86
2022-11-19T14:20:56.341Z,61.46
2022-11-19T14:22:51.412Z,60.79
2022-11-19T14:24:44.791Z,60.96
2022-11-19T14:26:36.763Z,60.84
2022-11-19T14:28:40.983Z,60.90
2022-11-19T14:30:17.242Z,61.33
2022-11-19T14:32:01.307Z,61.74
2022-11-19T14:33:48.410Z,62.00
2022-11-19T14:35:23.376Z,62.14
2022-11-19T14:36:58.617Z,62.67
2022-11-19T14:38:34.925Z,62.87
2022-11-19T14:40:12.893Z,62.55
2022-11-19T14:41:45.381Z,62.29
2022-11-19T14:43:35.981Z,62.17
2022-11-19T14:45:07.980Z,62.33
2022-11-19T14:46:41.530Z,62.41
2022-11-19T14:48:13.505Z,62.55
2022-11-19T14:49:47.069Z,62.68
2022-11-19T14:51:37.284Z,62.65
2022-11-19T14:53:16.434Z,63.61
2022-11-19T14:54:53.417Z,65.13
2022-11-19T14:56:25.407Z,64.67
2022-11-19T14:58:06.534Z,65.65
2022-11-19T14:59:38.765Z,66.42
2022-11-19T15:01:15.461Z,66.59
2022-11-19T15:02:50.730Z,66.84
2022-11-19T15:04:23.404Z,67.03
2022-11-19T15:05:55.476Z,67.24
2022-11-19T15:07:33.553Z,67.39
2022-11-19T15:09:05.779Z,68.55
2022-11-19T15:10:58.095Z,68.95
2022-11-19T15:12:45.179Z,68.79
2022-11-19T15:14:38.596Z,68.59
2022-11-19T15:16:17.887Z,67.21
2022-11-19T15:17:51.061Z,66.44
2022-11-19T15:19:25.850Z,66.71
2022-11-19T15:21:02.609Z,67.03
2022-11-19T15:22:46.636Z,67.20
2022-11-19T15:24:37.203Z,67.07
2022-11-19T15:26:12.230Z,67.17
2022-11-19T15:27:46.882Z,66.93
2022-11-19T15:29:24.490Z,67.05
2022-11-19T15:31:15.713Z,67.44
2022-11-19T15:32:51.504Z,67.74
2022-11-19T15:34:23.566Z,67.58
2022-11-19T15:35:55.571Z,67.30
2022-11-19T15:39:12.964Z,67.90
2022-11-19T15:40:46.393Z,68.49
2022-11-19T15:42:22.353Z,68.74
2022-11-19T15:43:54.662Z,68.43
2022-11-19T15:45:26.579Z,68.51
2022-11-19T15:46:59.756Z,69.05
2022-11-19T15:48:51.998Z,69.31
2022-11-19T15:50:24.728Z,69.04
2022-11-19T15:52:07.199Z,68.90
2022-11-19T15:53:39.165Z,68.55
2022-11-19T15:55:21.127Z,68.52
2022-11-19T15:56:53.288Z,68.63
2022-11-19T15:58:26.596Z,68.58
2022-11-19T16:00:01.338Z,68.38
2022-11-19T16:01:33.654Z,68.94
2022-11-19T16:03:05.788Z,69.67
2022-11-19T16:04:38.268Z,69.53
2022-11-19T16:06:22.452Z,70.11
2022-11-19T16:07:54.576Z,71.03
2022-11-19T16:09:29.598Z,71.56
2022-11-19T16:11:20.880Z,71.99
2022-11-19T16:13:12.143Z,72.27
2022-11-19T16:15:07.819Z,73.30
2022-11-19T16:16:58.392Z,73.92
2022-11-19T16:18:30.695Z,74.23
2022-11-19T16:20:03.827Z,73.50
2022-11-19T16:21:38.095Z,72.83
2022-11-19T16:23:10.179Z,72.61
2022-11-19T16:25:00.873Z,72.88
2022-11-19T16:26:36.447Z,72.43
2022-11-19T16:28:11.160Z,72.50
2022-11-19T16:29:43.444Z,72.52
2022-11-19T16:31:15.688Z,72.29
2022-11-19T16:32:47.695Z,72.53
2022-11-19T16:34:41.130Z,72.27
2022-11-19T16:36:17.323Z,72.64
2022-11-19T16:37:49.455Z,72.63
2022-11-19T16:39:25.394Z,72.72
2022-11-19T16:41:16.043Z,72.91
2022-11-19T16:42:58.011Z,73.03
2022-11-19T16:44:30.235Z,72.81
2022-11-19T16:46:02.326Z,72.82
2022-11-19T16:47:34.300Z,72.91
2022-11-19T16:49:11.515Z,72.82
2022-11-19T16:50:46.651Z,73.22
2022-11-19T16:52:50.940Z,72.92
2022-11-19T16:54:41.729Z,73.04
2022-11-19T16:56:16.952Z,73.42
2022-11-19T16:58:02.159Z,73.25
2022-11-19T16:59:34.248Z,73.85
2022-11-19T17:01:06.337Z,74.41
2022-11-19T17:02:38.906Z,74.98
2022-11-19T17:04:12.563Z,75.41
2022-11-19T17:05:45.400Z,75.69
2022-11-19T17:07:26.863Z,75.72
2022-11-19T17:09:01.621Z,75.86
2022-11-19T17:12:28.308Z,75.85
2022-11-19T17:14:10.918Z,75.92
2022-11-19T17:15:46.939Z,75.56
2022-11-19T17:17:24.879Z,75.46
2022-11-19T17:18:57.091Z,75.87
2022-11-19T17:20:29.960Z,76.14
2022-11-19T17:22:03.376Z,76.25
2022-11-19T17:23:37.613Z,76.88
2022-11-19T17:25:13.543Z,77.30
2022-11-19T17:26:47.441Z,77.97
2022-11-19T17:28:26.261Z,77.96
2022-11-19T17:30:03.081Z,77.98
2022-11-19T17:31:35.283Z,78.17
2022-11-19T17:33:07.467Z,78.27
2022-11-19T17:34:44.662Z,78.08
2022-11-19T17:36:17.048Z,77.96
2022-11-19T17:37:49.193Z,78.23
2022-11-19T17:39:25.661Z,78.45
2022-11-19T17:40:58.790Z,78.65
2022-11-19T17:42:49.280Z,78.78
2022-11-19T17:44:37.751Z,78.90
2022-11-19T17:46:09.974Z,78.65
2022-11-19T17:47:42.178Z,78.54
2022-11-19T17:49:14.413Z,78.63
2022-11-19T17:50:46.817Z,78.66
2022-11-19T17:52:21.953Z,78.71
2022-11-19T17:53:54.956Z,78.78
2022-11-19T17:55:27.147Z,78.41
2022-11-19T17:56:59.434Z,78.37
2022-11-19T17:58:31.502Z,78.38
2022-11-19T18:00:03.900Z,78.36
2022-11-19T18:01:36.251Z,78.10
2022-11-19T18:03:11.900Z,78.18
2022-11-19T18:04:44.566Z,78.46
2022-11-19T18:06:16.974Z,78.84
2022-11-19T18:07:49.083Z,78.78
2022-11-19T18:09:21.207Z,79.03
2022-11-19T18:10:53.211Z,79.27
2022-11-19T18:12:25.274Z,79.56
2022-11-19T18:13:58.448Z,79.65
2022-11-19T18:15:31.439Z,79.98
2022-11-19T18:17:04.407Z,79.75
2022-11-19T18:18:38.997Z,79.75
2022-11-19T18:20:11.458Z,79.81
2022-11-19T18:21:43.679Z,79.61
2022-11-19T18:23:15.821Z,79.77
2022-11-19T18:24:48.718Z,79.61
2022-11-19T18:26:22.947Z,79.41
2022-11-19T18:27:55.094Z,79.55
2022-11-19T18:29:30.197Z,79.62
2022-11-19T18:31:02.195Z,79.25
2022-11-19T18:32:34.233Z,79.40
2022-11-19T18:34:06.342Z,79.64
2022-11-19T18:35:38.451Z,79.65
2022-11-19T18:37:10.886Z,79.72
2022-11-19T18:38:43.162Z,79.25
2022-11-19T18:40:15.640Z,79.20
2022-11-19T18:41:47.600Z,78.92
2022-11-19T18:43:40.065Z,79.17
2022-11-19T18:45:12.440Z,79.52
2022-11-19T18:46:44.758Z,79.93
2022-11-19T18:48:16.727Z,79.92
2022-11-19T18:49:48.836Z,80.09
2022-11-19T18:51:21.076Z,80.11
2022-11-19T18:52:53.294Z,79.96
2022-11-19T18:54:25.493Z,79.36
2022-11-19T18:55:57.627Z,79.03
2022-11-19T18:57:29.900Z,78.37
2022-11-19T18:59:04.933Z,78.85
2022-11-19T19:00:37.358Z,79.26
2022-11-19T19:02:10.046Z,79.59
2022-11-19T19:03:42.220Z,79.45
2022-11-19T19:05:14.501Z,78.69
2022-11-19T19:06:46.622Z,78.60
2022-11-19T19:08:18.583Z,78.94
2022-11-19T19:09:50.485Z,79.29
2022-11-19T19:11:41.111Z,79.81
2022-11-19T19:13:15.712Z,79.97
2022-11-19T19:14:48.715Z,80.06
2022-11-19T19:16:20.966Z,80.10
2022-11-19T19:17:52.840Z,80.06
2022-11-19T19:19:24.762Z,80.32
2022-11-19T19:20:56.599Z,79.52
2022-11-19T19:22:29.276Z,79.32
2022-11-19T19:24:01.340Z,79.36
2022-11-19T19:25:33.443Z,79.67
2022-11-19T19:27:05.914Z,80.21
2022-11-19T19:28:37.970Z,80.34
2022-11-19T19:30:10.307Z,80.56
2022-11-19T19:31:42.662Z,80.92
2022-11-19T19:33:14.844Z,81.26
2022-11-19T19:34:46.749Z,81.56
2022-11-19T19:36:19.197Z,81.67
2022-11-19T19:37:51.272Z,81.94
2022-11-19T19:39:23.479Z,81.99
2022-11-19T19:40:55.822Z,81.80
2022-11-19T19:42:28.927Z,81.98
2022-11-19T19:44:01.767Z,81.89
2022-11-19T19:45:35.122Z,81.50
2022-11-19T19:47:07.253Z,81.21
2022-11-19T19:48:39.316Z,81.25
2022-11-19T19:50:11.278Z,81.16
2022-11-19T19:51:43.197Z,81.34
2022-11-19T19:53:15.093Z,81.15
2022-11-19T19:54:46.997Z,81.05
2022-11-19T19:56:20.203Z,81.06
2022-11-19T19:57:52.209Z,81.21
2022-11-19T19:59:24.634Z,81.52
2022-11-19T20:01:02.939Z,81.71
2022-11-19T20:02:38.083Z,81.73
2022-11-19T20:04:11.183Z,81.80
2022-11-19T20:05:48.058Z,81.61
2022-11-19T20:07:20.116Z,81.46
2022-11-19T20:08:52.267Z,81.11
2022-11-19T20:10:24.405Z,80.97
2022-11-19T20:11:56.788Z,81.48
2022-11-19T20:13:29.028Z,81.43
2022-11-19T20:15:01.265Z,81.39
2022-11-19T20:16:33.722Z,81.06
2022-11-19T20:18:06.033Z,80.90
2022-11-19T20:19:38.117Z,80.94
2022-11-19T20:21:11.296Z,81.35
2022-11-19T20:22:43.477Z,81.93
2022-11-19T20:24:17.828Z,81.95
2022-11-19T20:25:49.648Z,81.75
2022-11-19T20:27:21.699Z,81.37
2022-11-19T20:29:03.128Z,81.51
2022-11-19T20:30:36.638Z,81.53
2022-11-19T20:32:08.627Z,81.75
2022-11-19T20:33:40.936Z,81.81
2022-11-19T20:35:12.990Z,82.21
2022-11-19T20:36:44.905Z,82.16
2022-11-19T20:38:17.852Z,82.18
2022-11-19T20:39:49.721Z,82.33
2022-11-19T20:41:40.775Z,82.38
2022-11-19T20:43:31.276Z,82.28
2022-11-19T20:45:03.277Z,82.48
2022-11-19T20:46:35.338Z,82.58
2022-11-19T20:48:07.368Z,82.75
2022-11-19T20:49:41.967Z,82.78
2022-11-19T20:51:16.529Z,82.70
2022-11-19T20:52:48.400Z,82.67
2022-11-19T20:54:20.706Z,82.14
2022-11-19T20:56:04.667Z,82.04
2022-11-19T20:57:37.294Z,82.43
2022-11-19T20:59:09.287Z,82.14
2022-11-19T21:00:41.290Z,82.21
2022-11-19T21:02:13.305Z,82.55
2022-11-19T21:03:45.359Z,82.54
2022-11-19T21:05:17.240Z,82.97
2022-11-19T21:06:50.197Z,83.06
2022-11-19T21:08:22.058Z,83.36
2022-11-19T21:09:53.998Z,83.65
2022-11-19T21:11:25.972Z,83.83
2022-11-19T21:13:03.750Z,83.84
2022-11-19T21:14:35.792Z,83.44
2022-11-19T21:16:07.647Z,83.36
2022-11-19T21:17:39.540Z,83.20
2022-11-19T21:19:11.668Z,83.33
2022-11-19T21:20:43.561Z,83.50
2022-11-19T21:22:15.566Z,83.27
2022-11-19T21:23:47.611Z,83.38
2022-11-19T21:25:19.548Z,83.22
2022-11-19T21:26:51.480Z,83.28
2022-11-19T21:28:23.391Z,83.38
2022-11-19T21:29:55.758Z,83.21
2022-11-19T21:31:48.977Z,83.46
2022-11-19T21:33:21.083Z,83.17
2022-11-19T21:34:53.206Z,83.37
2022-11-19T21:36:25.076Z,83.15
2022-11-19T21:37:56.927Z,83.16
2022-11-19T21:39:28.801Z,83.61
2022-11-19T21:41:00.811Z,83.66
2022-11-19T21:42:32.598Z,83.69
2022-11-19T21:44:04.904Z,83.39
2022-11-19T21:45:42.702Z,83.22
2022-11-19T21:48:54.374Z,83.88
2022-11-19T21:50:26.446Z,83.59
2022-11-19T21:51:58.435Z,83.47